Hlavní strana
METAR-TAF:

METAR-TAF

Letiště :

Ósaka, Japonsko

zeměpisná šířka: 34-47N, zeměpisná délka: 135-27E, výška: 12 m

Aktuální stav počasí

Zpráva byla vytvořena před 53 minutami, v 04:00 UTC
Jihozápadní vítr 8 kt, proměnlivý mezi jižním a západojihozápadním
Teplota 16°C
Vlhkost vzduchu 39%
Tlak 1014 hPa
Viditelnost 10 km a více
Žádná oblačnost pod 1500 m, nevyskytují se cumulonimby.

METAR: RJOO 070400Z 22008KT 170V250 CAVOK 16/02 Q1014 RMK A2994

Čas: 13:53 (04:53 UTC)

Předpověď počasí

Zpráva byla vytvořena před 5 hodinami a 46 minutami, v 23:07 UTC
Předpověď platná od 07 v 00 UTC do 08 v 06 UTC
Jihojihozápadní vítr 8 kt
Viditelnost 10 km a více
Skoro jasno ve výšce 3000 ft
Změna
od 07 v 09 UTC do 07 v 11 UTC
Severozápadní vítr 5 kt
Změna
od 07 v 21 UTC do 08 v 00 UTC
Jihozápadní vítr 10 kt
Změna
od 08 v 03 UTC do 08 v 06 UTC
Západojihozápadní vítr 10 kt

TAF: RJOO 062307Z 0700/0806 21008KT 9999 FEW030 BECMG 0709/0711 32005KT BECMG 0721/0800 22010KT BECMG 0803/0806 24010KT

Stav a předpovědi počasí z více než 4 000 letišť (zprávy METAR a TAF).

Červené a žluté tečky na mapě představují dostupné meteorologické stanice.

Když kurzor umístíte na tečku, zobrazí se název stanice.

Pak kliknutím zobrazíte stav a předpověď počasí.

Chcete-li změnit mapu, kliknutím na zelené tlačítko se znaménkem +mapu přiblížíte, kliknutím na zelené tlačítko se znaménkem – mapu oddálíte a kliknutím na zelené šipky přejdete na sousední mapy.


METAR-TAF: